Time;durP1;ratioP1;P1;durP2;ratioP2;P2;SDS_P1;SDS_P2;PMS_P1;PMS_P2;Temp;Humidity;BMP_temperature;BMP_pressure;BME280_temperature;BME280_humidity;BME280_pressure;Samples;Min_cycle;Max_cycle;Signal;HPM_P1;HPM_P2
2023/05/13 00:01:15;;;;;;;9.20;5.57;;;12.40;99.90;;;;;;4976200;28;20046;-76
2023/05/13 00:03:41;;;;;;;9.20;5.50;;;12.40;99.90;;;;;;4976181;28;20480;-75
2023/05/13 00:06:07;;;;;;;11.25;5.85;;;12.30;99.90;;;;;;4978715;28;20138;-74
2023/05/13 00:08:33;;;;;;;10.02;5.78;;;12.30;99.90;;;;;;4979943;28;20441;-74
2023/05/13 00:10:59;;;;;;;8.20;5.47;;;12.30;99.90;;;;;;4995385;28;20093;-74
2023/05/13 00:13:25;;;;;;;8.40;5.60;;;12.20;99.90;;;;;;4996277;28;20048;-75
2023/05/13 00:15:51;;;;;;;13.47;6.30;;;12.20;99.90;;;;;;4979034;28;20125;-75
2023/05/13 00:18:17;;;;;;;10.75;6.80;;;12.10;99.90;;;;;;4996206;28;20125;-74
2023/05/13 00:20:43;;;;;;;11.30;6.45;;;12.10;99.90;;;;;;4996046;28;20070;-75
2023/05/13 00:23:10;;;;;;;13.77;6.63;;;12.10;99.90;;;;;;4978799;28;20081;-75
2023/05/13 00:25:36;;;;;;;11.25;6.70;;;12.00;99.90;;;;;;4996059;28;20129;-74
2023/05/13 00:28:03;;;;;;;10.82;5.97;;;12.00;99.90;;;;;;4962834;28;20445;-74
2023/05/13 00:30:28;;;;;;;12.15;6.43;;;12.00;99.90;;;;;;4978697;28;20046;-75
2023/05/13 00:32:54;;;;;;;11.38;6.60;;;11.90;99.90;;;;;;4995848;28;20133;-73
2023/05/13 00:35:20;;;;;;;10.45;6.13;;;11.90;99.90;;;;;;4978560;28;20050;-74
2023/05/13 00:37:46;;;;;;;11.00;6.55;;;11.90;99.90;;;;;;4979379;28;20042;-74
2023/05/13 00:40:30;;;;;;;10.55;6.50;;;11.90;99.90;;;;;;4962238;28;20072;-74
2023/05/13 00:42:56;;;;;;;10.98;7.18;;;11.80;99.90;;;;;;4995683;28;20050;-74
2023/05/13 00:45:22;;;;;;;10.55;7.03;;;11.80;99.90;;;;;;4995499;28;20046;-74
2023/05/13 00:47:48;;;;;;;11.93;7.57;;;11.80;99.90;;;;;;4995647;28;20380;-76
2023/05/13 00:50:14;;;;;;;12.68;7.22;;;11.70;99.90;;;;;;4978262;28;20483;-74
2023/05/13 00:52:41;;;;;;;12.40;7.13;;;11.70;99.90;;;;;;4978381;28;20054;-76
2023/05/13 00:55:08;;;;;;;15.07;7.60;;;11.70;99.90;;;;;;4995538;28;20402;-74
2023/05/13 00:57:34;;;;;;;;;;;11.60;99.90;;;;;;4996217;28;20148;-74
2023/05/13 01:00:01;;;;;;;13.20;8.10;;;11.60;99.90;;;;;;4995259;28;19969;-74
2023/05/13 01:02:36;;;;;;;13.90;7.57;;;11.60;99.90;;;;;;4995599;28;20049;-74
2023/05/13 01:05:18;;;;;;;14.23;7.75;;;11.60;99.90;;;;;;4978694;28;20370;-75
2023/05/13 01:08:16;;;;;;;13.02;7.55;;;11.50;99.90;;;;;;4995432;28;20093;-75
2023/05/13 01:10:59;;;;;;;13.38;7.90;;;11.50;99.90;;;;;;4962481;28;20050;-74
2023/05/13 01:13:37;;;;;;;11.82;7.88;;;11.40;99.90;;;;;;4994995;28;20117;-75
2023/05/13 01:16:09;;;;;;;11.00;8.02;;;11.40;99.90;;;;;;4995599;28;20438;-72
2023/05/13 01:18:47;;;;;;;15.32;7.93;;;11.40;99.90;;;;;;4994872;28;20045;-75
2023/05/13 01:21:13;;;;;;;14.80;7.68;;;11.30;99.90;;;;;;4995293;28;20419;-77
2023/05/13 01:23:39;;;;;;;13.48;8.15;;;11.30;99.90;;;;;;4994739;28;20133;-74
2023/05/13 01:26:04;;;;;;;13.38;8.38;;;11.30;99.90;;;;;;4994817;28;20487;-74
2023/05/13 01:28:30;;;;;;;13.85;8.27;;;11.30;99.90;;;;;;4994688;28;20049;-75
2023/05/13 01:30:57;;;;;;;13.50;8.23;;;11.20;99.90;;;;;;4995230;28;20049;-74
2023/05/13 01:33:23;;;;;;;15.63;8.80;;;11.20;99.90;;;;;;4994290;28;20093;-75
2023/05/13 01:35:50;;;;;;;14.00;8.77;;;11.20;99.90;;;;;;4994755;28;20088;-74
2023/05/13 01:38:18;;;;;;;12.65;8.05;;;11.20;99.90;;;;;;4977416;28;20112;-75
2023/05/13 01:40:45;;;;;;;15.02;8.95;;;11.20;99.90;;;;;;4995038;28;20053;-76
2023/05/13 01:43:11;;;;;;;16.92;8.73;;;11.20;99.90;;;;;;4962111;28;20097;-74
2023/05/13 01:45:37;;;;;;;12.57;8.20;;;11.10;99.90;;;;;;4977413;28;20092;-74
2023/05/13 01:48:03;;;;;;;13.77;8.68;;;11.20;99.90;;;;;;4977180;28;20617;-75
2023/05/13 01:50:28;;;;;;;14.30;9.27;;;11.10;99.90;;;;;;4977175;28;20053;-75
2023/05/13 01:52:54;;;;;;;16.55;9.70;;;11.10;99.90;;;;;;4994494;28;20042;-74
2023/05/13 01:55:20;;;;;;;16.23;9.80;;;11.10;99.90;;;;;;4977170;28;20057;-75
2023/05/13 01:57:46;;;;;;;15.50;9.20;;;11.10;99.90;;;;;;4994427;28;20054;-74
2023/05/13 02:00:12;;;;;;;18.25;9.95;;;11.10;99.90;;;;;;4977053;28;20485;-73
2023/05/13 02:02:37;;;;;;;17.35;10.23;;;11.10;99.90;;;;;;4994373;28;20058;-74
2023/05/13 02:05:04;;;;;;;15.95;9.25;;;11.00;99.90;;;;;;4994384;28;20057;-74
2023/05/13 02:07:30;;;;;;;15.93;10.65;;;11.00;99.90;;;;;;4976794;28;20058;-74
2023/05/13 02:09:58;;;;;;;15.45;9.70;;;11.00;99.90;;;;;;4977616;28;20061;-75
2023/05/13 02:12:27;;;;;;;16.00;9.48;;;10.90;99.90;;;;;;4994289;28;20054;-74
2023/05/13 02:14:54;;;;;;;15.48;10.05;;;10.90;99.90;;;;;;4996374;28;20046;-74
2023/05/13 02:17:20;;;;;;;17.45;9.90;;;10.80;99.90;;;;;;4996353;28;20051;-74
2023/05/13 02:19:46;;;;;;;15.35;9.30;;;10.80;99.90;;;;;;4995811;28;20042;-74
2023/05/13 02:22:12;;;;;;;16.23;10.60;;;10.70;99.90;;;;;;4978238;28;20058;-75
2023/05/13 02:24:41;;;;;;;14.40;9.25;;;10.80;99.90;;;;;;4994770;28;20051;-75
2023/05/13 02:27:07;;;;;;;17.02;9.82;;;10.80;99.90;;;;;;4994505;28;20093;-76
2023/05/13 02:29:33;;;;;;;19.13;9.52;;;10.70;99.90;;;;;;4976764;28;20073;-75
2023/05/13 02:31:59;;;;;;;13.55;9.15;;;10.70;99.90;;;;;;4976862;28;20054;-74
2023/05/13 02:34:25;;;;;;;18.40;9.77;;;10.70;99.90;;;;;;4995109;28;20053;-75
2023/05/13 02:36:51;;;;;;;17.15;9.50;;;10.60;99.90;;;;;;4965573;28;20137;-75
2023/05/13 02:39:17;;;;;;;14.25;9.45;;;10.70;99.90;;;;;;4980612;28;20050;-75
2023/05/13 02:41:43;;;;;;;19.67;11.18;;;10.60;99.90;;;;;;4965343;28;20046;-75
2023/05/13 02:44:09;;;;;;;16.67;10.65;;;10.60;99.90;;;;;;4998439;28;20058;-75
2023/05/13 02:46:35;;;;;;;17.90;9.77;;;10.60;99.90;;;;;;4980850;28;20136;-75
2023/05/13 02:49:01;;;;;;;15.60;9.88;;;10.60;99.90;;;;;;4980407;28;20133;-74
2023/05/13 02:51:27;;;;;;;20.30;11.18;;;10.50;99.90;;;;;;4980764;28;20053;-75
2023/05/13 02:53:53;;;;;;;17.75;10.00;;;10.50;99.90;;;;;;4980376;28;20092;-75
2023/05/13 02:56:18;;;;;;;15.88;10.35;;;10.50;99.90;;;;;;4997649;28;20046;-75
2023/05/13 02:58:44;;;;;;;20.92;11.48;;;10.50;99.90;;;;;;4980251;28;20047;-74
2023/05/13 03:01:10;;;;;;;17.90;10.75;;;10.40;99.90;;;;;;4980458;28;20047;-74
2023/05/13 03:03:35;;;;;;;18.10;10.73;;;10.40;99.90;;;;;;4964168;28;20371;-75
2023/05/13 03:06:01;;;;;;;18.25;10.05;;;10.40;99.90;;;;;;4964728;28;20061;-75
2023/05/13 03:08:27;;;;;;;19.67;10.35;;;10.40;99.90;;;;;;4997429;28;20402;-74
2023/05/13 03:10:53;;;;;;;19.15;11.20;;;10.40;99.90;;;;;;4979950;28;20058;-75
2023/05/13 03:13:18;;;;;;;19.88;11.13;;;10.40;99.90;;;;;;4963933;28;20054;-74
2023/05/13 03:15:44;;;;;;;23.02;11.57;;;10.40;99.90;;;;;;4997210;28;20395;-74
2023/05/13 03:18:10;;;;;;;19.17;10.80;;;10.30;99.90;;;;;;4998116;28;20073;-75
2023/05/13 03:20:36;;;;;;;15.88;10.50;;;10.30;99.90;;;;;;4979658;28;20493;-74
2023/05/13 03:23:03;;;;;;;17.73;11.80;;;10.20;99.90;;;;;;4997347;28;20442;-74
2023/05/13 03:25:28;;;;;;;20.30;10.35;;;10.30;99.90;;;;;;4980580;28;20089;-75
2023/05/13 03:27:54;;;;;;;21.13;11.02;;;10.20;99.90;;;;;;4997156;28;20163;-74
2023/05/13 03:30:20;;;;;;;19.42;12.10;;;10.20;99.90;;;;;;4997041;28;20203;-74
2023/05/13 03:32:46;;;;;;;21.70;11.07;;;10.20;99.90;;;;;;4979864;28;20525;-74
2023/05/13 03:35:11;;;;;;;20.30;13.52;;;10.10;99.90;;;;;;4979556;28;20137;-75
2023/05/13 03:37:37;;;;;;;25.23;11.32;;;10.10;99.90;;;;;;4964415;28;20050;-75
2023/05/13 03:40:03;;;;;;;19.33;11.60;;;10.10;99.90;;;;;;4997067;28;20562;-74
2023/05/13 03:42:29;;;;;;;19.52;11.27;;;10.10;99.90;;;;;;4979422;28;20050;-76
2023/05/13 03:44:56;;;;;;;21.92;12.07;;;10.00;99.90;;;;;;4979391;28;20046;-75
2023/05/13 03:47:22;;;;;;;18.83;11.43;;;10.00;99.90;;;;;;4962468;28;20061;-74
2023/05/13 03:49:48;;;;;;;17.27;11.93;;;10.00;99.90;;;;;;4979966;28;20121;-75
2023/05/13 03:52:15;;;;;;;20.05;11.77;;;9.90;99.90;;;;;;4979493;28;20049;-75
2023/05/13 03:54:41;;;;;;;21.30;11.75;;;9.90;99.90;;;;;;4996562;28;20050;-75
2023/05/13 03:57:07;;;;;;;20.02;10.98;;;9.90;99.90;;;;;;4996483;28;20130;-74
2023/05/13 03:59:33;;;;;;;19.30;12.45;;;9.90;99.90;;;;;;4996926;28;20069;-74
2023/05/13 04:01:59;;;;;;;18.00;11.95;;;9.90;99.90;;;;;;4996390;28;20090;-74
2023/05/13 04:04:25;;;;;;;17.88;12.48;;;9.90;99.90;;;;;;4979162;28;20086;-73
2023/05/13 04:06:50;;;;;;;22.67;12.27;;;9.90;99.90;;;;;;4978745;28;20112;-75
2023/05/13 04:09:16;;;;;;;24.23;13.48;;;9.90;99.90;;;;;;4996305;28;20406;-76
2023/05/13 04:11:42;;;;;;;23.02;12.55;;;9.90;99.90;;;;;;4996161;28;20085;-76
2023/05/13 04:14:07;;;;;;;22.67;12.15;;;10.00;99.90;;;;;;4996732;28;20050;-74
2023/05/13 04:16:33;;;;;;;20.50;13.00;;;9.90;99.90;;;;;;4962930;28;20054;-75
2023/05/13 04:18:59;;;;;;;20.73;12.30;;;10.00;99.90;;;;;;4978752;28;20434;-74
2023/05/13 04:21:24;;;;;;;20.60;12.63;;;10.00;99.90;;;;;;4996044;28;20046;-74
2023/05/13 04:23:50;;;;;;;19.88;11.90;;;10.00;99.90;;;;;;4995941;28;20046;-74
2023/05/13 04:26:16;;;;;;;22.80;12.60;;;10.00;99.90;;;;;;4996841;28;20053;-75
2023/05/13 04:28:41;;;;;;;20.83;12.27;;;10.00;99.90;;;;;;4995607;28;20573;-74
2023/05/13 04:31:07;;;;;;;17.95;12.77;;;10.10;99.90;;;;;;4947337;28;20137;-74
2023/05/13 04:33:33;;;;;;;20.98;12.65;;;10.10;99.90;;;;;;4995849;28;20081;-75
2023/05/13 04:35:59;;;;;;;23.58;12.68;;;10.10;99.90;;;;;;4978897;28;20133;-74
2023/05/13 04:38:24;;;;;;;21.48;12.95;;;10.20;99.90;;;;;;4995569;28;20462;-74
2023/05/13 04:40:51;;;;;;;20.35;12.45;;;10.30;99.90;;;;;;4978303;28;20089;-75
2023/05/13 04:43:16;;;;;;;20.95;14.32;;;10.40;99.90;;;;;;4978543;28;20082;-74
2023/05/13 04:45:42;;;;;;;21.65;12.07;;;10.40;99.90;;;;;;4978153;28;20100;-75
2023/05/13 04:48:08;;;;;;;22.85;13.48;;;10.50;99.90;;;;;;4996377;28;20056;-74
2023/05/13 04:50:34;;;;;;;20.48;13.02;;;10.50;99.90;;;;;;4996059;28;20049;-75
2023/05/13 04:52:59;;;;;;;20.65;12.57;;;10.50;99.90;;;;;;4996218;28;20042;-75
2023/05/13 04:55:25;;;;;;;22.00;12.90;;;10.50;99.90;;;;;;4995436;28;20455;-74
2023/05/13 04:57:51;;;;;;;23.23;14.43;;;10.60;99.90;;;;;;4995059;28;20101;-74
2023/05/13 05:00:16;;;;;;;21.85;14.80;;;10.60;99.90;;;;;;4962876;28;20125;-74
2023/05/13 05:02:43;;;;;;;20.17;13.30;;;10.60;99.90;;;;;;4961472;28;20051;-75
2023/05/13 05:05:09;;;;;;;22.58;13.95;;;10.70;99.90;;;;;;4978486;28;20104;-75
2023/05/13 05:07:39;;;;;;;22.65;14.88;;;10.70;99.90;;;;;;4995921;28;20058;-75
2023/05/13 05:10:06;;;;;;;23.83;15.10;;;10.80;99.90;;;;;;4978094;28;20062;-74
2023/05/13 05:12:32;;;;;;;24.00;13.32;;;10.80;99.90;;;;;;4961902;28;20093;-75
2023/05/13 05:14:58;;;;;;;24.88;15.77;;;10.80;99.90;;;;;;4962069;28;20448;-74
2023/05/13 05:17:23;;;;;;;25.67;15.98;;;10.90;99.90;;;;;;4994990;28;20133;-75
2023/05/13 05:19:49;;;;;;;24.05;14.32;;;10.90;99.90;;;;;;4961571;28;20089;-74
2023/05/13 05:22:15;;;;;;;27.08;16.42;;;11.00;99.90;;;;;;4977676;28;20049;-74
2023/05/13 05:24:41;;;;;;;31.73;17.02;;;11.00;99.90;;;;;;4961893;28;20042;-76
2023/05/13 05:27:06;;;;;;;27.00;14.48;;;11.10;99.90;;;;;;4994837;28;20510;-75
2023/05/13 05:29:32;;;;;;;32.05;15.15;;;11.10;99.90;;;;;;4994520;28;20129;-76
2023/05/13 05:31:58;;;;;;;21.60;14.35;;;11.20;99.90;;;;;;4995303;28;20050;-74
2023/05/13 05:34:23;;;;;;;24.80;15.90;;;11.30;99.90;;;;;;4978166;28;20042;-75
2023/05/13 05:36:49;;;;;;;26.63;13.77;;;11.30;99.90;;;;;;4995289;28;20485;-74
2023/05/13 05:39:15;;;;;;;27.48;15.57;;;11.30;99.90;;;;;;4945515;28;20058;-76
2023/05/13 05:41:41;;;;;;;23.15;13.85;;;11.40;99.90;;;;;;4961172;28;20478;-74
2023/05/13 05:44:06;;;;;;;25.15;15.25;;;11.50;99.90;;;;;;4977034;28;20054;-74
2023/05/13 05:46:32;;;;;;;23.50;13.27;;;11.60;99.90;;;;;;4994572;28;20046;-76
2023/05/13 05:48:58;;;;;;;22.17;13.75;;;11.60;99.90;;;;;;4977431;28;20058;-75
2023/05/13 05:51:24;;;;;;;24.55;13.65;;;11.50;99.90;;;;;;4977399;28;20434;-74
2023/05/13 05:53:49;;;;;;;25.95;15.93;;;11.70;99.90;;;;;;4994926;28;20426;-75
2023/05/13 05:56:15;;;;;;;28.10;15.27;;;11.70;99.90;;;;;;4977029;28;20050;-75
2023/05/13 05:58:41;;;;;;;23.50;14.77;;;11.70;99.90;;;;;;4977031;28;20088;-75
2023/05/13 06:01:06;;;;;;;27.05;14.60;;;11.70;99.90;;;;;;4994234;28;20046;-75
2023/05/13 06:03:32;;;;;;;28.27;14.00;;;11.80;99.90;;;;;;4961776;28;20451;-74
2023/05/13 06:05:58;;;;;;;25.83;15.35;;;11.90;99.90;;;;;;4944806;28;20093;-74
2023/05/13 06:08:28;;;;;;;25.05;16.83;;;11.90;99.90;;;;;;4994599;28;20054;-75
2023/05/13 06:10:56;;;;;;;26.08;14.43;;;12.00;99.90;;;;;;4993983;28;20046;-74
2023/05/13 06:13:22;;;;;;;20.95;14.63;;;12.00;99.90;;;;;;4977040;28;20129;-75
2023/05/13 06:15:47;;;;;;;27.80;14.68;;;12.10;99.90;;;;;;4976754;28;20129;-74
2023/05/13 06:18:13;;;;;;;20.80;13.00;;;12.20;99.90;;;;;;4977323;28;20050;-74
2023/05/13 06:20:39;;;;;;;22.30;14.88;;;12.30;99.90;;;;;;4994854;28;20043;-78
2023/05/13 06:23:06;;;;;;;28.87;15.13;;;12.40;99.90;;;;;;4993965;28;20039;-75
2023/05/13 06:25:31;;;;;;;21.63;13.80;;;12.50;99.90;;;;;;4976862;28;20125;-74
2023/05/13 06:27:57;;;;;;;20.65;12.98;;;12.40;99.90;;;;;;4993699;28;20380;-75
2023/05/13 06:30:23;;;;;;;22.77;13.95;;;12.50;99.90;;;;;;4994565;28;20046;-75
2023/05/13 06:32:49;;;;;;;24.55;14.05;;;12.60;99.90;;;;;;4977180;28;20054;-75
2023/05/13 06:35:15;;;;;;;20.55;12.25;;;12.70;99.90;;;;;;4993968;28;20479;-74
2023/05/13 06:37:40;;;;;;;20.75;13.77;;;12.90;99.90;;;;;;4976939;28;20046;-75
2023/05/13 06:40:07;;;;;;;21.75;13.95;;;13.00;99.90;;;;;;4993889;28;20545;-74
2023/05/13 06:42:35;;;;;;;20.83;12.60;;;13.10;99.90;;;;;;4993950;28;20056;-75
2023/05/13 06:45:00;;;;;;;23.13;12.48;;;13.10;99.90;;;;;;4976298;28;20133;-74
2023/05/13 06:47:26;;;;;;;20.40;12.65;;;13.20;99.90;;;;;;4977353;28;20126;-75
2023/05/13 06:49:52;;;;;;;20.17;12.23;;;13.30;99.90;;;;;;4977584;28;20058;-76
2023/05/13 06:52:18;;;;;;;19.00;12.50;;;13.40;99.90;;;;;;4960660;28;20078;-75
2023/05/13 06:54:43;;;;;;;22.20;12.18;;;13.40;99.90;;;;;;4976641;28;20490;-75
2023/05/13 06:57:09;;;;;;;26.23;12.13;;;13.40;99.90;;;;;;4976368;28;20096;-76
2023/05/13 06:59:35;;;;;;;21.95;12.02;;;13.50;99.90;;;;;;4993600;28;20046;-75
2023/05/13 07:02:01;;;;;;;19.27;12.68;;;13.60;99.90;;;;;;4976710;28;20081;-75
2023/05/13 07:04:29;;;;;;;19.42;12.52;;;13.80;99.90;;;;;;4994444;28;20050;-75
2023/05/13 07:06:55;;;;;;;22.02;11.68;;;13.90;99.90;;;;;;4976848;28;20402;-75
2023/05/13 07:09:21;;;;;;;20.17;11.32;;;14.10;99.90;;;;;;4976685;28;20046;-75
2023/05/13 07:11:47;;;;;;;21.75;11.85;;;14.10;99.90;;;;;;4994447;28;20100;-76
2023/05/13 07:14:13;;;;;;;19.15;12.75;;;14.20;99.90;;;;;;4993910;28;20047;-75
2023/05/13 07:16:38;;;;;;;17.50;11.38;;;14.30;99.90;;;;;;4993592;28;20077;-74
2023/05/13 07:19:04;;;;;;;19.05;12.10;;;14.40;99.90;;;;;;4976026;28;20108;-74
2023/05/13 07:21:30;;;;;;;16.75;11.05;;;14.40;99.90;;;;;;4996127;28;20034;-75
2023/05/13 07:23:56;;;;;;;18.90;11.40;;;14.50;99.90;;;;;;4979781;28;20053;-74
2023/05/13 07:26:21;;;;;;;16.33;11.23;;;14.50;99.90;;;;;;4979572;28;20051;-76
2023/05/13 07:28:47;;;;;;;17.30;11.05;;;14.60;99.90;;;;;;4980261;28;20046;-77
2023/05/13 07:31:13;;;;;;;22.85;12.70;;;14.80;99.90;;;;;;4947828;28;20057;-74
2023/05/13 07:33:38;;;;;;;17.85;11.02;;;14.90;99.90;;;;;;4979451;28;20069;-76
2023/05/13 07:36:05;;;;;;;18.70;11.52;;;14.90;99.90;;;;;;4980685;28;20082;-75
2023/05/13 07:38:31;;;;;;;15.85;10.13;;;15.10;99.90;;;;;;4979625;28;20054;-74
2023/05/13 07:40:56;;;;;;;16.35;10.43;;;15.10;99.90;;;;;;4979337;28;20057;-75
2023/05/13 07:43:22;;;;;;;19.60;11.18;;;15.20;99.90;;;;;;4979684;28;20050;-76
2023/05/13 07:45:50;;;;;;;15.70;10.77;;;15.20;99.90;;;;;;4996733;28;20100;-78
2023/05/13 07:48:17;;;;;;;16.45;10.23;;;15.30;99.90;;;;;;4996607;28;20046;-76
2023/05/13 07:50:46;;;;;;;16.83;10.90;;;15.40;99.90;;;;;;4979858;28;20058;-75
2023/05/13 07:53:12;;;;;;;16.52;10.38;;;15.40;99.90;;;;;;4996343;28;20505;-76
2023/05/13 07:55:38;;;;;;;15.75;10.13;;;15.50;99.90;;;;;;4979496;28;20046;-75
2023/05/13 07:58:05;;;;;;;16.58;10.02;;;15.70;99.90;;;;;;4997040;28;20042;-74
2023/05/13 08:00:31;;;;;;;14.88;9.35;;;15.80;99.90;;;;;;4963018;28;20038;-75
2023/05/13 08:02:56;;;;;;;16.23;9.82;;;16.00;99.90;;;;;;4996147;28;20060;-75
2023/05/13 08:05:22;;;;;;;16.20;9.15;;;16.20;99.90;;;;;;4996590;28;20050;-75
2023/05/13 08:07:50;;;;;;;13.82;9.50;;;;;;;;;;4996108;28;20061;-75
2023/05/13 08:10:16;;;;;;;14.48;9.27;;;;;;;;;;4996742;28;20046;-74
2023/05/13 08:12:42;;;;;;;16.00;8.50;;;16.40;99.90;;;;;;4996562;28;20058;-76
2023/05/13 08:15:10;;;;;;;14.90;9.05;;;16.70;99.90;;;;;;4978894;28;20494;-75
2023/05/13 08:17:36;;;;;;;12.27;7.90;;;16.50;99.90;;;;;;4997110;28;20058;-75
2023/05/13 08:20:02;;;;;;;14.05;8.98;;;16.50;99.90;;;;;;4979291;28;20493;-74
2023/05/13 08:22:28;;;;;;;15.43;8.60;;;16.60;99.90;;;;;;4979472;28;20038;-75
2023/05/13 08:24:53;;;;;;;13.73;8.65;;;16.70;99.90;;;;;;4980180;28;20125;-75
2023/05/13 08:27:19;;;;;;;17.15;8.48;;;16.80;99.90;;;;;;4998067;28;20054;-75
2023/05/13 08:29:45;;;;;;;16.95;8.70;;;16.90;99.90;;;;;;4997414;28;20138;-75
2023/05/13 08:32:11;;;;;;;16.20;8.43;;;17.00;99.90;;;;;;4997410;28;20124;-76
2023/05/13 08:34:36;;;;;;;13.57;8.53;;;17.10;99.90;;;;;;4997314;28;20050;-75
2023/05/13 08:37:02;;;;;;;11.90;8.32;;;17.10;99.90;;;;;;4997298;28;20057;-76
2023/05/13 08:39:28;;;;;;;13.23;8.10;;;17.20;99.90;;;;;;4963845;28;20058;-76
2023/05/13 08:41:58;;;;;;;12.97;8.03;;;17.30;99.90;;;;;;4979208;28;20050;-77
2023/05/13 08:44:28;;;;;;;14.77;8.38;;;17.40;99.90;;;;;;4979263;28;20046;-75
2023/05/13 08:47:31;;;;;;;12.82;8.48;;;17.40;99.90;;;;;;4978924;28;20108;-77
2023/05/13 08:49:57;;;;;;;11.48;7.40;;;17.50;99.90;;;;;;4991200;28;20055;-73
2023/05/13 08:52:25;;;;;;;11.53;7.17;;;;;;;;;;4996265;28;20054;-74
2023/05/13 08:54:52;;;;;;;11.57;7.38;;;;;;;;;;4978433;28;20054;-76
2023/05/13 08:57:19;;;;;;;;;;;;;;;;;;4995772;28;20082;-73
2023/05/13 08:59:46;;;;;;;12.13;7.40;;;;;;;;;;4994383;28;19945;-74
2023/05/13 09:02:13;;;;;;;16.02;8.60;;;;;;;;;;4978486;28;20078;-74
2023/05/13 09:04:41;;;;;;;16.88;9.05;;;;;;;;;;4978222;28;20090;-74
2023/05/13 09:07:10;;;;;;;17.23;7.00;;;;;;;;;;4974467;28;20114;-75
2023/05/13 09:09:37;;;;;;;14.55;7.80;;;;;;;;;;4975773;28;20082;-73
2023/05/13 09:12:04;;;;;;;16.63;8.15;;;;;;;;;;4975825;28;20059;-74
2023/05/13 09:14:33;;;;;;;13.98;7.07;;;18.60;99.90;;;;;;4959312;28;20051;-75
2023/05/13 09:17:01;;;;;;;15.23;6.55;;;18.60;99.90;;;;;;4974537;28;20062;-75
2023/05/13 09:19:26;;;;;;;11.98;6.15;;;18.60;99.90;;;;;;4976381;28;20435;-77
2023/05/13 09:21:53;;;;;;;10.30;6.17;;;18.70;99.90;;;;;;4974284;28;20081;-76
2023/05/13 09:24:20;;;;;;;10.50;5.50;;;18.80;99.90;;;;;;4958535;28;20047;-76
2023/05/13 09:26:47;;;;;;;11.00;6.10;;;18.80;99.90;;;;;;4974807;28;20287;-78
2023/05/13 09:29:13;;;;;;;;;;;18.90;99.90;;;;;;4975847;28;20053;-75
2023/05/13 09:31:39;;;;;;;;;;;19.00;99.90;;;;;;4975856;28;20397;-75
2023/05/13 09:34:05;;;;;;;10.05;5.55;;;19.00;99.90;;;;;;4975407;28;19930;-75
2023/05/13 09:36:31;;;;;;;11.83;5.50;;;19.10;99.90;;;;;;4958507;28;20413;-76
2023/05/13 09:38:58;;;;;;;13.90;6.00;;;19.20;99.90;;;;;;4975527;28;20050;-74
2023/05/13 09:41:27;;;;;;;;;;;19.30;99.90;;;;;;4975579;28;20053;-76
2023/05/13 09:43:53;;;;;;;13.40;5.85;;;19.30;99.90;;;;;;4974878;28;19922;-79
2023/05/13 09:46:20;;;;;;;9.27;5.67;;;19.40;99.90;;;;;;4975137;28;20054;-77
2023/05/13 09:48:46;;;;;;;15.35;5.20;;;19.30;99.90;;;;;;4974250;28;20502;-74
2023/05/13 09:51:13;;;;;;;9.10;5.10;;;19.50;99.90;;;;;;4974905;28;20055;-76
2023/05/13 09:53:40;;;;;;;11.90;5.75;;;19.50;99.90;;;;;;4974314;28;20050;-74
2023/05/13 09:56:09;;;;;;;14.38;5.78;;;19.50;99.90;;;;;;4957918;28;20070;-76
2023/05/13 09:58:34;;;;;;;10.25;5.03;;;19.50;99.90;;;;;;4974945;28;20137;-75
2023/05/13 10:01:01;;;;;;;11.37;5.90;;;19.60;99.90;;;;;;4957413;28;20132;-75
2023/05/13 10:03:28;;;;;;;8.57;5.25;;;19.70;99.90;;;;;;4974905;28;20047;-77
2023/05/13 10:05:55;;;;;;;9.85;4.82;;;19.70;99.90;;;;;;4973870;28;20061;-76
2023/05/13 10:08:20;;;;;;;;;;;19.80;99.90;;;;;;4994084;28;20140;-80
2023/05/13 10:10:48;;;;;;;12.83;5.70;;;19.90;99.90;;;;;;4994269;28;20020;-75
2023/05/13 10:13:17;;;;;;;10.55;5.05;;;19.80;99.90;;;;;;4994127;28;20352;-77
2023/05/13 10:15:50;;;;;;;11.80;5.00;;;19.90;99.90;;;;;;4994231;28;20046;-76
2023/05/13 10:18:17;;;;;;;6.47;4.10;;;20.00;99.90;;;;;;4994537;28;20038;-73
2023/05/13 10:20:43;;;;;;;;;;;20.10;99.90;;;;;;4977369;28;20097;-77
2023/05/13 10:23:10;;;;;;;9.88;4.35;;;20.10;99.50;;;;;;4977262;28;19926;-76
2023/05/13 10:25:36;;;;;;;;;;;20.20;99.90;;;;;;4977115;28;20061;-76
2023/05/13 10:28:05;;;;;;;9.77;3.67;;;20.20;99.90;;;;;;4993760;28;20086;-73
2023/05/13 10:30:32;;;;;;;14.75;4.28;;;20.30;97.30;;;;;;4993606;28;20133;-74
2023/05/13 10:32:58;;;;;;;;;;;20.30;98.90;;;;;;4994933;28;20085;-75
2023/05/13 10:35:29;;;;;;;7.28;3.83;;;20.40;98.10;;;;;;4993729;28;19960;-76
2023/05/13 10:38:20;;;;;;;13.07;4.38;;;20.40;99.00;;;;;;4977521;28;20059;-77
2023/05/13 10:41:22;;;;;;;11.10;4.28;;;20.50;97.30;;;;;;4994177;28;20427;-75
2023/05/13 10:43:58;;;;;;;8.63;3.00;;;20.50;98.20;;;;;;4993916;28;20105;-77
2023/05/13 10:46:24;;;;;;;6.72;3.03;;;20.70;98.20;;;;;;4994257;28;20046;-75
2023/05/13 10:48:55;;;;;;;6.25;2.72;;;20.80;98.00;;;;;;4977477;28;20068;-78
2023/05/13 10:51:23;;;;;;;7.38;3.00;;;20.80;94.90;;;;;;4976807;28;20503;-77
2023/05/13 10:53:59;;;;;;;8.65;3.65;;;20.90;95.90;;;;;;4993748;28;20042;-72
2023/05/13 10:56:27;;;;;;;12.43;2.95;;;20.90;94.50;;;;;;4979529;28;20124;-77
2023/05/13 10:58:58;;;;;;;11.13;3.33;;;21.00;95.50;;;;;;4964393;28;20054;-79
2023/05/13 11:01:36;;;;;;;10.73;3.10;;;21.10;94.40;;;;;;4964398;28;20050;-74
2023/05/13 11:04:03;;;;;;;11.18;2.92;;;21.10;93.60;;;;;;4980051;28;20439;-78
2023/05/13 11:06:29;;;;;;;13.70;3.33;;;21.10;93.50;;;;;;4979795;28;20074;-72
2023/05/13 11:08:55;;;;;;;6.93;2.50;;;21.20;94.10;;;;;;4998017;28;20372;-79
2023/05/13 11:11:23;;;;;;;7.70;2.50;;;21.20;93.40;;;;;;4964256;28;20426;-76
2023/05/13 11:13:53;;;;;;;5.28;2.30;;;21.30;93.00;;;;;;4997423;28;20060;-74
2023/05/13 11:16:21;;;;;;;6.32;2.58;;;21.30;92.40;;;;;;4998255;28;20383;-73
2023/05/13 11:18:48;;;;;;;12.10;2.65;;;21.30;86.50;;;;;;4997255;28;20053;-74
2023/05/13 11:21:13;;;;;;;8.07;2.30;;;21.20;87.90;;;;;;4997195;28;20053;-76
2023/05/13 11:23:56;;;;;;;4.77;2.27;;;21.20;88.20;;;;;;4980628;28;20050;-75
2023/05/13 11:26:22;;;;;;;9.63;3.28;;;21.20;90.00;;;;;;4980756;28;20114;-79
2023/05/13 11:29:14;;;;;;;9.73;2.97;;;21.10;89.80;;;;;;4980130;28;20517;-80
2023/05/13 11:31:45;;;;;;;10.85;2.95;;;21.10;88.60;;;;;;4979638;28;20360;-78
2023/05/13 11:34:14;;;;;;;8.63;3.22;;;21.20;90.40;;;;;;4997061;28;20046;-76
2023/05/13 11:36:43;;;;;;;8.68;3.22;;;21.20;90.90;;;;;;4979503;28;20053;-78
2023/05/13 11:39:14;;;;;;;6.65;2.70;;;21.00;90.50;;;;;;4980404;28;20487;-77
2023/05/13 11:42:02;;;;;;;9.35;3.00;;;21.00;91.10;;;;;;4979458;28;20038;-76
2023/05/13 11:44:28;;;;;;;8.35;2.58;;;21.10;91.10;;;;;;4997897;28;20432;-78
2023/05/13 11:47:00;;;;;;;8.47;2.40;;;21.20;91.30;;;;;;4964175;28;20085;-74
2023/05/13 11:49:42;;;;;;;7.75;2.65;;;21.40;90.50;;;;;;4979800;28;20078;-76
2023/05/13 11:52:08;;;;;;;7.05;2.88;;;21.50;90.70;;;;;;4979809;28;20051;-76
2023/05/13 11:54:43;;;;;;;6.90;2.38;;;21.80;91.00;;;;;;4996801;28;20534;-79
2023/05/13 11:57:27;;;;;;;10.07;3.30;;;21.80;89.10;;;;;;4996591;28;20058;-75
2023/05/13 12:00:05;;;;;;;7.80;3.08;;;22.00;90.10;;;;;;4963510;28;20121;-75
2023/05/13 12:02:33;;;;;;;6.13;2.50;;;21.90;90.30;;;;;;4979217;28;20054;-76
2023/05/13 12:05:08;;;;;;;5.38;2.45;;;21.90;90.20;;;;;;4996302;28;20050;-75
2023/05/13 12:07:34;;;;;;;7.38;2.90;;;21.90;86.30;;;;;;4978065;28;20104;-76
2023/05/13 12:10:02;;;;;;;8.38;2.83;;;21.80;87.00;;;;;;4979655;28;20085;-74
2023/05/13 12:12:30;;;;;;;8.82;2.63;;;21.90;87.80;;;;;;4979082;28;20136;-75
2023/05/13 12:14:59;;;;;;;11.45;2.50;;;21.90;87.50;;;;;;4979022;28;20130;-77
2023/05/13 12:17:25;;;;;;;6.55;2.38;;;22.00;85.80;;;;;;4996150;28;20498;-74
2023/05/13 12:20:24;;;;;;;5.50;2.22;;;22.00;84.40;;;;;;4978790;28;20042;-79
2023/05/13 12:22:53;;;;;;;4.43;2.17;;;22.00;83.10;;;;;;4947235;28;20069;-77
2023/05/13 12:25:34;;;;;;;5.55;2.67;;;22.20;83.70;;;;;;4962804;28;20053;-73
2023/05/13 12:28:10;;;;;;;5.93;2.45;;;22.30;84.10;;;;;;4996706;28;20061;-77
2023/05/13 12:30:38;;;;;;;5.57;2.10;;;22.40;84.70;;;;;;4996159;28;20054;-77
2023/05/13 12:33:04;;;;;;;8.50;2.63;;;22.30;80.10;;;;;;4979149;28;20056;-76
2023/05/13 12:35:31;;;;;;;5.80;2.50;;;22.30;79.20;;;;;;4996064;28;20546;-77
2023/05/13 12:38:03;;;;;;;9.18;2.60;;;22.50;81.60;;;;;;4995664;28;20278;-77
2023/05/13 12:40:30;;;;;;;4.72;2.40;;;22.70;82.40;;;;;;4978438;28;20050;-74
2023/05/13 12:43:00;;;;;;;7.22;2.30;;;22.80;81.90;;;;;;4995932;28;20077;-76